Time;durP1;ratioP1;P1;durP2;ratioP2;P2;SDS_P1;SDS_P2;PMS_P1;PMS_P2;Temp;Humidity;BMP_temperature;BMP_pressure;BME280_temperature;BME280_humidity;BME280_pressure;Samples;Min_cycle;Max_cycle;Signal;HPM_P1;HPM_P2
2023/07/31 00:02:14;;;;;;;7.13;2.50;;;;;;;18.08;70.09;100909.50;7390817;19;20088;-61
2023/07/31 00:04:41;;;;;;;10.90;2.80;;;;;;;18.04;70.05;100903.63;7388244;19;20048;-61
2023/07/31 00:07:09;;;;;;;7.03;2.38;;;;;;;18.09;69.94;100897.81;7390537;19;20019;-61
2023/07/31 00:09:36;;;;;;;7.70;2.40;;;;;;;18.14;70.36;100895.47;7390627;19;20055;-61
2023/07/31 00:12:04;;;;;;;5.80;2.08;;;;;;;18.06;70.76;100898.13;7389195;19;20534;-61
2023/07/31 00:14:31;;;;;;;8.15;2.42;;;;;;;18.06;70.52;100904.31;7389368;19;20022;-61
2023/07/31 00:16:58;;;;;;;6.10;1.90;;;;;;;18.07;70.82;100903.31;7390507;19;20015;-61
2023/07/31 00:19:26;;;;;;;8.45;2.35;;;;;;;18.10;70.58;100899.47;7388670;19;20018;-61
2023/07/31 00:21:53;;;;;;;8.18;2.33;;;;;;;18.08;71.22;100893.44;7388357;19;20018;-61
2023/07/31 00:24:21;;;;;;;8.02;2.30;;;;;;;18.06;71.10;100893.59;7388390;19;20023;-60
2023/07/31 00:26:48;;;;;;;7.38;2.00;;;;;;;18.02;71.34;100897.59;7387831;19;20014;-60
2023/07/31 00:29:15;;;;;;;6.00;1.83;;;;;;;18.01;71.45;100893.25;7387926;19;20023;-59
2023/07/31 00:31:43;;;;;;;5.47;1.90;;;;;;;17.97;71.74;100891.84;7389554;19;20011;-60
2023/07/31 00:34:10;;;;;;;6.82;1.77;;;;;;;17.99;71.30;100897.91;7391984;19;20015;-59
2023/07/31 00:36:38;;;;;;;6.43;2.10;;;;;;;18.03;71.06;100889.38;7389549;19;20014;-59
2023/07/31 00:39:05;;;;;;;5.43;2.10;;;;;;;18.04;71.39;100884.84;7386557;19;20030;-60
2023/07/31 00:41:33;;;;;;;5.22;2.00;;;;;;;18.05;71.28;100881.19;7389208;19;20018;-60
2023/07/31 00:44:00;;;;;;;7.00;2.05;;;;;;;18.03;71.35;100883.19;7389237;19;20043;-60
2023/07/31 00:46:28;;;;;;;5.35;1.90;;;;;;;18.01;71.25;100880.69;7394904;19;20010;-59
2023/07/31 00:48:55;;;;;;;4.88;1.73;;;;;;;18.00;71.35;100870.09;7394966;19;20028;-59
2023/07/31 00:51:23;;;;;;;5.40;1.85;;;;;;;18.04;71.28;100876.81;7394728;19;20039;-60
2023/07/31 00:53:51;;;;;;;4.45;1.80;;;;;;;17.98;71.68;100878.31;7396984;19;20022;-60
2023/07/31 00:56:18;;;;;;;4.53;1.70;;;;;;;18.02;71.63;100871.63;7393652;19;20018;-60
2023/07/31 00:58:46;;;;;;;6.35;2.00;;;;;;;17.98;71.71;100878.31;7393301;19;20022;-60
2023/07/31 01:01:13;;;;;;;5.10;1.83;;;;;;;17.98;71.91;100872.13;7396204;19;20022;-60
2023/07/31 01:03:41;;;;;;;5.35;1.90;;;;;;;18.01;71.66;100874.47;7395872;19;20025;-60
2023/07/31 01:06:24;;;;;;;5.05;1.80;;;;;;;18.03;71.87;100859.91;7394086;19;20039;-60
2023/07/31 01:09:02;;;;;;;4.60;1.98;;;;;;;18.00;71.80;100856.69;7393985;19;20022;-60
2023/07/31 01:11:56;;;;;;;5.47;1.70;;;;;;;18.05;71.92;100870.47;7394093;19;20018;-61
2023/07/31 01:14:23;;;;;;;4.43;1.70;;;;;;;17.85;72.31;100858.28;7395818;19;20018;-62
2023/07/31 01:16:50;;;;;;;5.32;1.80;;;;;;;17.95;72.32;100864.38;7395843;19;20512;-61
2023/07/31 01:19:23;;;;;;;5.22;2.00;;;;;;;17.95;72.07;100864.38;7391897;19;20043;-61
2023/07/31 01:21:53;;;;;;;4.22;2.00;;;;;;;17.93;72.68;100866.38;7396018;19;20053;-61
2023/07/31 01:24:21;;;;;;;5.68;1.90;;;;;;;17.91;72.80;100868.38;7395427;19;20032;-61
2023/07/31 01:27:23;;;;;;;4.55;1.70;;;;;;;18.02;72.35;100877.00;7393602;19;20022;-62
2023/07/31 01:29:59;;;;;;;5.22;1.85;;;;;;;18.03;72.36;100877.81;7393944;19;20022;-60
2023/07/31 01:32:29;;;;;;;5.20;1.83;;;;;;;18.10;72.67;100870.00;7394098;19;20079;-60
2023/07/31 01:34:59;;;;;;;6.30;1.85;;;;;;;18.09;72.37;100871.84;7398646;19;20022;-60
2023/07/31 01:37:29;;;;;;;7.18;2.00;;;;;;;18.00;72.93;100867.41;7395180;19;20023;-61
2023/07/31 01:39:57;;;;;;;4.75;1.70;;;;;;;17.91;73.31;100854.97;7394899;19;20022;-60
2023/07/31 01:42:24;;;;;;;3.45;1.70;;;;;;;17.96;72.92;100855.34;7394860;19;20040;-60
2023/07/31 01:44:51;;;;;;;4.72;1.73;;;;;;;17.93;73.38;100848.47;7392222;19;20027;-62
2023/07/31 01:47:19;;;;;;;4.97;2.00;;;;;;;17.88;73.56;100844.56;7394369;19;20074;-59
2023/07/31 01:49:46;;;;;;;5.85;1.90;;;;;;;17.93;73.17;100843.13;7394653;19;20051;-59
2023/07/31 01:52:13;;;;;;;4.05;1.63;;;;;;;17.96;73.37;100833.91;7392316;19;20500;-59
2023/07/31 01:54:41;;;;;;;4.70;1.73;;;;;;;17.90;73.33;100834.56;7394164;19;20022;-59
2023/07/31 01:57:08;;;;;;;5.28;2.00;;;;;;;17.74;74.33;100835.22;7391292;19;20086;-59
2023/07/31 01:59:35;;;;;;;5.32;1.50;;;;;;;17.74;74.52;100833.41;7393036;19;20488;-59
2023/07/31 02:02:03;;;;;;;5.72;1.73;;;;;;;17.77;74.74;100824.25;7392855;19;20018;-59
2023/07/31 02:04:30;;;;;;;5.80;1.48;;;;;;;17.77;75.08;100822.41;7394523;19;20011;-59
2023/07/31 02:06:57;;;;;;;4.10;1.70;;;;;;;17.71;75.13;100827.53;7394178;19;20018;-58
2023/07/31 02:09:25;;;;;;;4.65;1.70;;;;;;;17.66;75.73;100814.59;7390141;19;20018;-59
2023/07/31 02:11:52;;;;;;;4.53;1.85;;;;;;;17.68;75.63;100815.28;7393701;19;20173;-59
2023/07/31 02:14:19;;;;;;;4.50;1.70;;;;;;;17.66;76.17;100808.41;7393759;19;20483;-58
2023/07/31 02:16:47;;;;;;;6.22;1.83;;;;;;;17.62;76.13;100809.72;7393511;19;20113;-58
2023/07/31 02:19:14;;;;;;;3.25;1.70;;;;;;;17.63;76.59;100814.06;7391014;19;20050;-59
2023/07/31 02:21:41;;;;;;;4.10;1.60;;;;;;;17.56;76.87;100810.38;7393853;19;20019;-59
2023/07/31 02:24:09;;;;;;;4.85;1.70;;;;;;;17.53;77.17;100803.47;7393400;19;20039;-58
2023/07/31 02:26:36;;;;;;;3.58;1.58;;;;;;;17.52;76.82;100799.97;7391044;19;20048;-58
2023/07/31 02:29:04;;;;;;;4.28;1.55;;;;;;;17.49;76.97;100799.44;7391865;19;20032;-58
2023/07/31 02:31:31;;;;;;;3.15;1.58;;;;;;;17.50;77.15;100803.78;7391866;19;20018;-59
2023/07/31 02:33:58;;;;;;;2.90;1.50;;;;;;;17.39;77.33;100815.56;7393192;19;20499;-59
2023/07/31 02:36:26;;;;;;;3.72;1.65;;;;;;;17.46;77.63;100811.28;7391598;19;20510;-59
2023/07/31 02:38:53;;;;;;;4.15;1.80;;;;;;;17.52;77.33;100815.19;7391281;19;20035;-59
2023/07/31 02:41:20;;;;;;;4.07;1.92;;;;;;;17.45;77.30;100806.94;7392783;19;20014;-59
2023/07/31 02:43:48;;;;;;;5.78;2.10;;;;;;;17.43;77.58;100798.22;7393581;19;20085;-59
2023/07/31 02:46:15;;;;;;;4.88;1.90;;;;;;;17.51;77.04;100800.97;7392436;19;20078;-59
2023/07/31 02:48:42;;;;;;;3.78;1.67;;;;;;;17.41;77.57;100802.06;7391456;19;20034;-59
2023/07/31 02:51:10;;;;;;;4.28;1.63;;;;;;;17.30;78.20;100793.28;7392681;19;20024;-59
2023/07/31 02:53:37;;;;;;;3.42;1.83;;;;;;;17.40;77.91;100800.34;7390973;19;20044;-60
2023/07/31 02:56:05;;;;;;;4.50;2.13;;;;;;;17.39;78.16;100804.88;7392133;19;20018;-60
2023/07/31 02:58:32;;;;;;;4.45;2.13;;;;;;;17.39;78.14;100806.72;7391411;19;20509;-60
2023/07/31 03:00:59;;;;;;;3.92;1.98;;;;;;;17.48;78.05;100805.78;7390602;19;20018;-60
2023/07/31 03:03:27;;;;;;;4.32;2.10;;;;;;;17.45;78.04;100806.94;7392401;19;20089;-60
2023/07/31 03:05:55;;;;;;;3.25;1.92;;;;;;;17.47;78.27;100809.44;7391236;19;20010;-60
2023/07/31 03:08:23;;;;;;;3.97;1.67;;;;;;;17.43;78.41;100802.72;7391142;19;20028;-58
2023/07/31 03:10:50;;;;;;;5.05;2.15;;;;;;;17.40;78.64;100795.88;7392548;19;20025;-61
2023/07/31 03:13:17;;;;;;;4.00;1.83;;;;;;;17.42;78.50;100790.34;7391700;19;20035;-59
2023/07/31 03:15:45;;;;;;;4.75;2.13;;;;;;;17.47;78.61;100799.56;7390988;19;20025;-60
2023/07/31 03:18:12;;;;;;;4.70;2.10;;;;;;;17.51;78.24;100794.75;7391622;19;20357;-58
2023/07/31 03:20:44;;;;;;;4.82;1.83;;;;;;;17.54;78.09;100787.25;7391544;19;20014;-61
2023/07/31 03:23:11;;;;;;;5.22;1.85;;;;;;;17.51;78.04;100787.59;7390504;19;20039;-61
2023/07/31 03:25:39;;;;;;;3.33;1.90;;;;;;;17.43;78.58;100794.69;7390661;19;20500;-61
2023/07/31 03:28:06;;;;;;;4.93;2.00;;;;;;;17.39;78.88;100794.16;7390350;19;20022;-60
2023/07/31 03:30:38;;;;;;;4.10;2.03;;;;;;;17.49;78.08;100786.88;7389865;19;20499;-60
2023/07/31 03:33:05;;;;;;;5.03;1.88;;;;;;;17.47;78.12;100796.06;7390776;19;20102;-60
2023/07/31 03:35:32;;;;;;;4.07;1.88;;;;;;;17.38;78.84;100791.66;7389459;19;20335;-59
2023/07/31 03:38:00;;;;;;;3.50;2.08;;;;;;;17.36;78.96;100794.50;7390316;19;20484;-59
2023/07/31 03:40:27;;;;;;;3.40;1.95;;;;;;;17.38;78.90;100783.63;7389274;19;20022;-60
2023/07/31 03:42:54;;;;;;;5.47;1.92;;;;;;;17.38;78.89;100780.94;7391691;19;20015;-63
2023/07/31 03:45:22;;;;;;;2.95;1.70;;;;;;;17.43;78.59;100782.13;7390364;19;20042;-63
2023/07/31 03:47:49;;;;;;;4.97;2.20;;;;;;;17.47;78.50;100788.03;7390154;19;20525;-59
2023/07/31 03:50:16;;;;;;;3.92;2.03;;;;;;;17.44;78.73;100778.50;7389788;19;20014;-58
2023/07/31 03:52:44;;;;;;;3.60;1.90;;;;;;;17.40;78.91;100785.16;7390808;19;20025;-58
2023/07/31 03:55:11;;;;;;;4.53;1.90;;;;;;;17.45;78.95;100787.34;7388486;19;20021;-59
2023/07/31 03:57:38;;;;;;;3.65;2.00;;;;;;;17.52;78.93;100783.06;7389488;19;20468;-59
2023/07/31 04:00:06;;;;;;;3.70;1.83;;;;;;;17.48;78.78;100779.84;7390717;19;20030;-59
2023/07/31 04:02:34;;;;;;;3.95;2.15;;;;;;;17.44;78.84;100775.81;7390603;19;20551;-59
2023/07/31 04:05:01;;;;;;;3.60;1.90;;;;;;;17.42;78.81;100776.97;7386024;19;20018;-59
2023/07/31 04:07:29;;;;;;;3.65;1.98;;;;;;;17.43;78.83;100775.94;7385968;19;20019;-60
2023/07/31 04:09:57;;;;;;;4.25;1.95;;;;;;;17.47;78.79;100778.16;7390105;19;20022;-60
2023/07/31 04:12:24;;;;;;;4.50;1.90;;;;;;;17.49;78.83;100781.53;7390394;19;20020;-59
2023/07/31 04:14:51;;;;;;;4.80;1.90;;;;;;;17.44;78.91;100775.81;7390008;19;20026;-59
2023/07/31 04:17:19;;;;;;;3.65;2.15;;;;;;;17.39;79.22;100772.75;7388345;19;20041;-60
2023/07/31 04:19:46;;;;;;;5.60;2.03;;;;;;;17.30;79.60;100766.50;7390716;19;20315;-60
2023/07/31 04:22:13;;;;;;;2.60;1.70;;;;;;;17.35;79.30;100760.69;7398012;19;20074;-59
2023/07/31 04:24:41;;;;;;;4.53;1.90;;;;;;;17.41;79.02;100751.19;7396957;19;20466;-59
2023/07/31 04:27:08;;;;;;;3.92;1.95;;;;;;;17.36;79.36;100748.13;7395745;19;20484;-60
2023/07/31 04:29:39;;;;;;;3.33;1.90;;;;;;;17.33;79.84;100748.47;7392985;19;20717;-58
2023/07/31 04:32:07;;;;;;;3.30;2.20;;;;;;;17.37;79.48;100739.13;7394072;19;20038;-59
2023/07/31 04:34:34;;;;;;;4.15;2.00;;;;;;;17.38;79.46;100740.78;7392276;19;20035;-59
2023/07/31 04:37:01;;;;;;;3.78;2.10;;;;;;;17.37;79.39;100733.75;7396272;19;20015;-58
2023/07/31 04:39:29;;;;;;;3.90;1.90;;;;;;;17.39;79.16;100743.28;7395110;19;20014;-58
2023/07/31 04:41:56;;;;;;;4.47;2.10;;;;;;;17.39;79.64;100739.78;7396977;19;20028;-58
2023/07/31 04:44:23;;;;;;;2.22;1.50;;;;;;;17.40;79.27;100733.41;7396396;19;20022;-58
2023/07/31 04:46:51;;;;;;;3.72;1.80;;;;;;;17.37;79.32;100733.75;7396442;19;20018;-58
2023/07/31 04:49:19;;;;;;;4.00;2.13;;;;;;;17.48;79.11;100741.53;7394214;19;20096;-57
2023/07/31 04:51:46;;;;;;;3.38;1.85;;;;;;;17.37;79.47;100739.13;7396652;19;20018;-57
2023/07/31 04:54:14;;;;;;;3.20;1.88;;;;;;;17.42;79.34;100742.16;7393149;19;20022;-58
2023/07/31 04:56:42;;;;;;;3.72;2.10;;;;;;;17.37;79.39;100742.63;7395903;19;20039;-58
2023/07/31 04:59:09;;;;;;;4.88;2.67;;;;;;;17.42;79.56;100736.78;7393910;19;20021;-57
2023/07/31 05:01:36;;;;;;;9.18;3.33;;;;;;;17.45;79.06;100737.31;7396729;19;20103;-58
2023/07/31 05:04:04;;;;;;;7.28;3.45;;;;;;;17.52;79.33;100727.66;7396534;19;20090;-58
2023/07/31 05:06:31;;;;;;;6.20;2.50;;;;;;;17.38;79.46;100719.38;7395859;19;20409;-57
2023/07/31 05:08:59;;;;;;;3.28;2.00;;;;;;;17.48;79.43;100730.81;7394273;19;20018;-57
2023/07/31 05:11:26;;;;;;;3.50;1.63;;;;;;;17.46;79.26;100735.47;7396405;19;20010;-57
2023/07/31 05:13:53;;;;;;;2.55;1.58;;;;;;;17.44;79.58;100729.47;7394941;19;20022;-57
2023/07/31 05:16:20;;;;;;;2.65;1.60;;;;;;;17.49;79.39;100730.66;7395058;19;20025;-58
2023/07/31 05:18:48;;;;;;;1.88;1.33;;;;;;;17.53;79.05;100732.00;7393941;19;20018;-58
2023/07/31 05:21:15;;;;;;;3.20;1.35;;;;;;;17.51;79.39;100728.66;7396259;19;20022;-58
2023/07/31 05:23:42;;;;;;;2.05;1.25;;;;;;;17.48;79.50;100738.84;7395625;19;20180;-58
2023/07/31 05:26:10;;;;;;;2.15;1.52;;;;;;;17.47;79.84;100731.78;7394961;19;20035;-57
2023/07/31 05:28:37;;;;;;;3.60;1.30;;;;;;;17.52;79.52;100729.50;7394142;19;20018;-57
2023/07/31 05:31:06;;;;;;;2.70;1.33;;;;;;;17.56;79.45;100724.66;7393621;19;20037;-58
2023/07/31 05:33:34;;;;;;;3.00;1.30;;;;;;;17.51;79.59;100722.44;7394616;19;20011;-58
2023/07/31 05:36:01;;;;;;;3.30;1.33;;;;;;;17.59;79.27;100717.16;7393073;19;20096;-58
2023/07/31 05:38:29;;;;;;;3.70;1.10;;;;;;;17.65;79.19;100721.84;7394159;19;20018;-58
2023/07/31 05:40:56;;;;;;;3.28;1.30;;;;;;;17.69;79.24;100715.19;7392934;19;20022;-58
2023/07/31 05:43:24;;;;;;;1.17;0.90;;;;;;;17.67;79.29;100709.16;7393703;19;20026;-58
2023/07/31 05:45:51;;;;;;;1.80;0.80;;;;;;;17.60;79.61;100699.25;7392558;19;20035;-58
2023/07/31 05:48:18;;;;;;;3.00;1.50;;;;;;;17.57;79.79;100695.03;7393666;19;20022;-58
2023/07/31 05:50:46;;;;;;;1.75;1.15;;;;;;;17.58;79.77;100696.72;7395013;19;20040;-58
2023/07/31 05:53:13;;;;;;;1.50;0.95;;;;;;;17.73;79.48;100694.28;7394300;19;20077;-57
2023/07/31 05:55:40;;;;;;;1.77;1.00;;;;;;;17.73;79.67;100707.66;7394191;19;20019;-57
2023/07/31 05:58:08;;;;;;;0.95;0.85;;;;;;;17.70;79.37;100692.75;7393361;19;20019;-58
2023/07/31 06:00:35;;;;;;;0.95;0.77;;;;;;;17.68;79.79;100701.97;7395088;19;20026;-57
2023/07/31 06:03:02;;;;;;;2.60;0.88;;;;;;;17.62;80.23;100692.72;7392567;19;20018;-58
2023/07/31 06:05:30;;;;;;;1.30;1.00;;;;;;;17.60;80.14;100701.94;7393919;19;20014;-58
2023/07/31 06:07:57;;;;;;;1.85;1.00;;;;;;;17.71;79.84;100690.94;7393157;19;20062;-58
2023/07/31 06:10:25;;;;;;;1.80;0.90;;;;;;;17.74;79.85;100686.09;7394533;19;20047;-58
2023/07/31 06:12:53;;;;;;;1.42;1.02;;;;;;;17.72;79.90;100690.75;7394148;19;20014;-58
2023/07/31 06:15:21;;;;;;;1.67;1.08;;;;;;;17.74;79.84;100688.78;7391081;19;20014;-58
2023/07/31 06:17:48;;;;;;;2.42;1.20;;;;;;;17.73;79.80;100694.28;7392881;19;20014;-57
2023/07/31 06:20:15;;;;;;;1.23;1.10;;;;;;;17.76;80.04;100689.47;7392249;19;20017;-59
2023/07/31 06:22:43;;;;;;;1.77;1.20;;;;;;;17.79;80.11;100691.00;7392543;19;20018;-58
2023/07/31 06:25:11;;;;;;;1.25;1.10;;;;;;;17.83;79.95;100681.63;7392576;19;20036;-59
2023/07/31 06:27:41;;;;;;;1.48;1.17;;;;;;;17.80;80.14;100681.13;7393388;19;20022;-58
2023/07/31 06:30:09;;;;;;;1.63;0.90;;;;;;;17.82;80.11;100673.75;7391933;19;20035;-58
2023/07/31 06:32:37;;;;;;;1.40;1.00;;;;;;;17.71;80.50;100666.81;7393497;19;20015;-59
2023/07/31 06:35:04;;;;;;;1.42;0.90;;;;;;;17.75;80.53;100665.53;7395248;19;20018;-58
2023/07/31 06:37:32;;;;;;;1.95;0.88;;;;;;;17.80;80.48;100665.03;7393160;19;20045;-57
2023/07/31 06:40:05;;;;;;;1.58;1.00;;;;;;;17.76;80.51;100660.00;7393090;19;20046;-58
2023/07/31 06:42:32;;;;;;;2.03;1.15;;;;;;;17.75;80.53;100660.19;7391951;19;20035;-58
2023/07/31 06:44:59;;;;;;;1.88;1.00;;;;;;;17.75;80.78;100663.69;7391903;19;20011;-58
2023/07/31 06:47:27;;;;;;;2.40;1.15;;;;;;;17.75;80.71;100660.19;7392193;19;20365;-57
2023/07/31 06:49:55;;;;;;;1.08;0.90;;;;;;;17.75;80.48;100649.47;7393498;19;20014;-57
2023/07/31 06:52:22;;;;;;;1.55;0.90;;;;;;;17.77;80.53;100653.63;7392579;19;20780;-57
2023/07/31 06:55:16;;;;;;;1.05;0.88;;;;;;;17.82;80.46;100653.19;7389011;19;20078;-57
2023/07/31 06:57:44;;;;;;;1.70;0.93;;;;;;;17.76;80.97;100657.31;7391678;19;20495;-57
2023/07/31 07:00:13;;;;;;;1.75;1.02;;;;;;;17.82;81.01;100660.34;7390565;19;20011;-57
2023/07/31 07:02:40;;;;;;;2.58;1.10;;;;;;;17.86;80.77;100651.84;7392355;19;20044;-57
2023/07/31 07:05:08;;;;;;;0.98;0.60;;;;;;;17.82;80.75;100647.81;7391769;19;20039;-57
2023/07/31 07:07:36;;;;;;;2.63;0.88;;;;;;;17.84;80.80;100648.47;7391827;19;20043;-57
2023/07/31 07:10:04;;;;;;;1.98;0.73;;;;;;;17.87;80.52;100645.47;7392489;19;20018;-57
2023/07/31 07:12:33;;;;;;;2.00;0.70;;;;;;;17.92;80.92;100651.16;7392155;19;20022;-57
2023/07/31 07:15:00;;;;;;;1.13;0.85;;;;;;;17.95;80.72;100650.84;7388851;19;20047;-57
2023/07/31 07:17:32;;;;;;;3.47;1.00;;;;;;;17.99;80.91;100641.47;7392044;19;20014;-57
2023/07/31 07:20:00;;;;;;;1.40;0.70;;;;;;;17.99;81.04;100644.16;7390944;19;20046;-59
2023/07/31 07:22:28;;;;;;;1.77;1.08;;;;;;;17.93;81.35;100639.47;7391997;19;20082;-59
2023/07/31 07:24:59;;;;;;;1.88;0.90;;;;;;;17.99;81.44;100632.59;7390436;19;20338;-59
2023/07/31 07:27:26;;;;;;;2.05;1.00;;;;;;;18.09;81.21;100632.47;7391872;19;20085;-59
2023/07/31 07:29:53;;;;;;;1.90;0.98;;;;;;;18.07;81.29;100640.66;7391513;19;20416;-59
2023/07/31 07:32:21;;;;;;;1.48;0.90;;;;;;;18.02;81.69;100635.78;7391671;19;20014;-59
2023/07/31 07:34:48;;;;;;;2.35;1.10;;;;;;;18.04;81.74;100638.31;7392994;19;20023;-59
2023/07/31 07:37:16;;;;;;;1.42;0.90;;;;;;;18.08;81.51;100638.81;7391361;19;20019;-59
2023/07/31 07:39:44;;;;;;;2.35;1.17;;;;;;;18.05;82.10;100628.41;7389551;19;20015;-58
2023/07/31 07:42:11;;;;;;;2.05;1.17;;;;;;;18.07;81.75;100631.78;7389543;19;20015;-58
2023/07/31 07:44:39;;;;;;;2.65;1.42;;;;;;;18.11;81.82;100638.50;7389947;19;20496;-58
2023/07/31 07:47:06;;;;;;;5.00;1.58;;;;;;;18.17;81.53;100625.28;7390764;19;20015;-58
2023/07/31 07:49:35;;;;;;;2.97;1.45;;;;;;;18.19;81.38;100633.13;7389489;19;20090;-58
2023/07/31 07:52:03;;;;;;;3.88;1.80;;;;;;;18.17;81.66;100630.63;7391048;19;20015;-58
2023/07/31 07:54:31;;;;;;;6.35;2.10;;;;;;;18.07;81.55;100632.63;7387643;19;20522;-58
2023/07/31 07:56:59;;;;;;;6.85;2.70;;;;;;;18.10;82.01;100631.47;7391082;19;20023;-58
2023/07/31 07:59:27;;;;;;;7.55;2.85;;;;;;;18.08;81.99;100636.13;7388703;19;20039;-58
2023/07/31 08:01:54;;;;;;;7.32;3.15;;;;;;;18.05;82.35;100626.59;7390200;19;20022;-58
2023/07/31 08:04:21;;;;;;;9.80;3.60;;;;;;;18.08;82.40;100628.94;7388805;19;20557;-58
2023/07/31 08:06:49;;;;;;;10.70;3.75;;;;;;;18.10;82.34;100626.94;7390398;19;20043;-59
2023/07/31 08:09:16;;;;;;;9.20;4.07;;;;;;;18.12;82.02;100616.88;7388606;19;20011;-58
2023/07/31 08:11:43;;;;;;;9.13;4.32;;;;;;;18.19;82.21;100609.84;7388266;19;20365;-59
2023/07/31 08:14:11;;;;;;;12.32;4.63;;;;;;;18.15;81.83;100618.41;7389830;19;20014;-59
2023/07/31 08:16:38;;;;;;;12.88;4.82;;;;;;;18.23;81.62;100613.03;7389543;19;20018;-58
2023/07/31 08:19:06;;;;;;;13.05;5.38;;;;;;;18.23;81.37;100619.22;7387057;19;20492;-59
2023/07/31 08:21:34;;;;;;;9.82;5.25;;;;;;;18.32;80.89;100613.91;7388205;19;20043;-60
2023/07/31 08:24:01;;;;;;;13.90;5.60;;;;;;;18.35;80.86;100608.19;7389702;19;20587;-60
2023/07/31 08:26:29;;;;;;;13.05;5.65;;;;;;;18.35;80.93;100609.00;7387558;19;20030;-60
2023/07/31 08:28:57;;;;;;;16.70;5.45;;;;;;;18.47;80.06;100605.00;7386437;19;20086;-59
2023/07/31 08:31:24;;;;;;;16.83;6.00;;;;;;;18.57;79.91;100599.47;7390046;19;20021;-58
2023/07/31 08:33:52;;;;;;;18.73;6.90;;;;;;;18.61;79.75;100605.31;7389958;19;20376;-58
2023/07/31 08:36:19;;;;;;;18.23;6.68;;;;;;;18.47;80.09;100596.97;7389023;19;20106;-60
2023/07/31 08:38:47;;;;;;;13.20;6.28;;;;;;;18.45;79.93;100600.81;7388357;19;20026;-60
2023/07/31 08:41:16;;;;;;;14.70;6.43;;;;;;;18.44;79.93;100591.94;7388900;19;20070;-60
2023/07/31 08:43:46;;;;;;;13.68;6.15;;;;;;;18.49;79.77;100584.22;7389521;19;20018;-61
2023/07/31 08:46:14;;;;;;;14.25;6.80;;;;;;;18.55;80.08;100588.09;7387461;19;20039;-61
2023/07/31 08:48:42;;;;;;;15.73;6.47;;;;;;;18.68;79.21;100591.06;7386671;19;20556;-59
2023/07/31 08:51:10;;;;;;;18.25;6.85;;;;;;;18.84;78.87;100590.22;7389198;19;20015;-60
2023/07/31 08:53:38;;;;;;;19.70;7.28;;;;;;;18.87;78.25;100597.13;7389601;19;20081;-60
2023/07/31 08:56:07;;;;;;;17.17;6.90;;;;;;;18.81;78.70;100587.06;7386180;19;20022;-61
2023/07/31 08:58:35;;;;;;;19.73;6.95;;;;;;;18.86;78.33;100585.53;7388051;19;20039;-60
2023/07/31 09:01:04;;;;;;;15.35;6.50;;;;;;;18.99;77.93;100593.06;7389325;19;20082;-60
2023/07/31 09:03:35;;;;;;;15.55;6.55;;;;;;;18.92;78.36;100592.91;7389735;19;20035;-59
2023/07/31 09:06:06;;;;;;;14.20;6.85;;;;;;;18.84;78.54;100592.09;7390301;19;20520;-59
2023/07/31 09:08:33;;;;;;;16.95;6.90;;;;;;;18.77;78.59;100588.41;7395030;19;20018;-59
2023/07/31 09:11:03;;;;;;;18.23;7.18;;;;;;;18.82;78.34;100589.59;7395781;19;20021;-58
2023/07/31 09:13:31;;;;;;;14.70;6.65;;;;;;;18.83;78.52;100587.72;7394732;19;20038;-59
2023/07/31 09:15:59;;;;;;;18.02;6.07;;;;;;;18.82;78.09;100592.25;7392757;19;20019;-59
2023/07/31 09:18:26;;;;;;;16.85;6.38;;;;;;;18.74;78.73;100590.44;7394739;19;20476;-59
2023/07/31 09:21:01;;;;;;;14.60;5.53;;;;;;;18.70;78.44;100585.56;7395773;19;20046;-59
2023/07/31 09:23:41;;;;;;;14.40;5.68;;;;;;;18.71;78.47;100581.88;7395709;19;20025;-58
2023/07/31 09:26:09;;;;;;;13.93;5.72;;;;;;;18.63;78.78;100577.34;7395457;19;20031;-58
2023/07/31 09:28:37;;;;;;;11.80;4.38;;;;;;;18.63;78.10;100581.88;7394102;19;20034;-58
2023/07/31 09:31:04;;;;;;;12.82;4.78;;;;;;;18.60;78.25;100583.03;7394024;19;20397;-57
2023/07/31 09:33:32;;;;;;;9.82;4.30;;;;;;;18.63;78.01;100582.72;7394555;19;20007;-58
2023/07/31 09:36:00;;;;;;;11.23;4.00;;;;;;;18.67;78.19;100573.31;7392865;19;20078;-57
2023/07/31 09:38:28;;;;;;;8.90;4.00;;;;;;;18.79;78.18;100575.66;7393578;19;20014;-57
2023/07/31 09:40:59;;;;;;;9.75;3.72;;;;;;;18.89;77.42;100573.66;7395200;19;20024;-57
2023/07/31 09:43:27;;;;;;;7.45;3.60;;;;;;;18.78;77.87;100568.63;7394781;19;20043;-57
2023/07/31 09:45:56;;;;;;;7.45;3.78;;;;;;;18.80;78.51;100566.59;7394370;19;20019;-57
2023/07/31 09:48:27;;;;;;;10.73;4.00;;;;;;;18.87;78.29;100557.69;7392941;19;20021;-58
2023/07/31 09:50:55;;;;;;;11.10;4.32;;;;;;;18.93;78.18;100551.66;7395174;19;20026;-57
2023/07/31 09:53:30;;;;;;;11.73;4.07;;;;;;;18.97;78.66;100557.50;7394935;19;20017;-57
2023/07/31 09:56:01;;;;;;;11.35;3.85;;;;;;;19.26;78.02;100542.63;7390473;19;20011;-57
2023/07/31 09:58:29;;;;;;;9.05;4.32;;;;;;;19.38;77.54;100539.38;7391245;19;20014;-58
2023/07/31 10:00:59;;;;;;;9.80;4.10;;;;;;;19.45;77.50;100539.50;7394611;19;20137;-57
2023/07/31 10:03:29;;;;;;;9.77;3.70;;;;;;;19.15;78.69;100541.16;7394865;19;20082;-57
2023/07/31 10:05:58;;;;;;;8.35;3.60;;;;;;;19.15;78.52;100536.63;7392051;19;20558;-57
2023/07/31 10:08:32;;;;;;;11.13;4.03;;;;;;;19.00;78.92;100530.31;7392253;19;20022;-57
2023/07/31 10:11:02;;;;;;;10.20;3.67;;;;;;;18.96;79.34;100529.84;7394210;19;20029;-57
2023/07/31 10:13:30;;;;;;;6.30;2.88;;;;;;;18.95;79.67;100524.63;7394728;19;20018;-57
2023/07/31 10:16:00;;;;;;;9.23;3.17;;;;;;;18.89;79.53;100525.34;7393531;19;20123;-58
2023/07/31 10:18:28;;;;;;;7.50;2.83;;;;;;;18.85;79.58;100527.53;7390932;19;20538;-58
2023/07/31 10:20:56;;;;;;;7.95;3.13;;;;;;;18.79;79.70;100519.31;7392636;19;20018;-58
2023/07/31 10:23:27;;;;;;;6.90;3.08;;;;;;;18.87;79.70;100519.28;7393856;19;20011;-58
2023/07/31 10:25:57;;;;;;;9.40;3.38;;;;;;;18.92;79.97;100524.97;7395335;19;20026;-58
2023/07/31 10:28:25;;;;;;;7.30;2.92;;;;;;;19.03;79.42;100504.97;7394623;19;20025;-58
2023/07/31 10:30:54;;;;;;;6.78;2.42;;;;;;;19.02;80.10;100506.81;7396486;19;20025;-58
2023/07/31 10:33:24;;;;;;;8.23;2.75;;;;;;;19.08;79.65;100507.97;7391682;19;20579;-59
2023/07/31 10:36:12;;;;;;;6.20;2.40;;;;;;;19.15;80.10;100506.25;7393724;19;20090;-59
2023/07/31 10:38:39;;;;;;;6.90;2.28;;;;;;;19.19;79.37;100508.44;7393760;19;20430;-58
2023/07/31 10:41:10;;;;;;;7.60;2.40;;;;;;;19.27;79.13;100509.38;7394128;19;20038;-59
2023/07/31 10:43:38;;;;;;;4.65;2.28;;;;;;;19.18;79.58;100495.19;7391363;19;20022;-58
2023/07/31 10:46:11;;;;;;;4.05;2.25;;;;;;;19.18;79.84;100490.63;7392366;19;20026;-59
2023/07/31 10:48:41;;;;;;;5.53;2.20;;;;;;;19.12;80.39;100491.34;7394296;19;20010;-58
2023/07/31 10:51:11;;;;;;;3.85;1.80;;;;;;;19.15;79.89;100488.28;7395569;19;20042;-58
2023/07/31 10:53:40;;;;;;;4.60;1.88;;;;;;;19.27;79.78;100479.84;7395236;19;20018;-58
2023/07/31 10:56:09;;;;;;;4.45;1.65;;;;;;;19.24;79.88;100489.94;7390473;19;20022;-58
2023/07/31 10:58:37;;;;;;;3.90;1.63;;;;;;;19.13;80.24;100484.97;7391991;19;20043;-59
2023/07/31 11:01:05;;;;;;;3.22;1.60;;;;;;;19.16;80.29;100484.63;7391959;19;20015;-58
2023/07/31 11:03:46;;;;;;;4.28;1.52;;;;;;;19.29;80.05;100481.34;7390793;19;20011;-58
2023/07/31 11:06:17;;;;;;;3.63;1.48;;;;;;;19.22;80.09;100483.91;7392020;19;20029;-58
2023/07/31 11:08:48;;;;;;;3.80;1.30;;;;;;;19.32;80.00;100474.81;7390276;19;20027;-58
2023/07/31 11:11:20;;;;;;;3.00;1.33;;;;;;;19.44;79.75;100482.28;7390550;19;20019;-58
2023/07/31 11:13:52;;;;;;;2.13;1.50;;;;;;;19.38;80.31;100466.84;7391883;19;20506;-58
2023/07/31 11:16:23;;;;;;;3.10;1.20;;;;;;;19.27;80.57;100467.28;7390441;19;20019;-59
2023/07/31 11:18:52;;;;;;;2.88;1.00;;;;;;;19.38;80.03;100468.72;7388796;19;20528;-58
2023/07/31 11:21:23;;;;;;;2.67;0.93;;;;;;;19.57;79.13;100472.78;7391900;19;20015;-58
2023/07/31 11:23:53;;;;;;;2.80;0.75;;;;;;;19.67;78.95;100462.69;7390192;19;20624;-58
2023/07/31 11:26:21;;;;;;;0.95;0.85;;;;;;;19.59;79.02;100462.72;7391025;19;20022;-58
2023/07/31 11:28:49;;;;;;;1.13;0.82;;;;;;;19.46;79.85;100460.63;7390061;19;20402;-58
2023/07/31 11:31:18;;;;;;;2.60;0.85;;;;;;;19.43;80.02;100472.56;7390009;19;20033;-58